Aérodrome :
LOGIN :

S'inscrire | Disclaimer

   EN    FR    IT 

 










Légende :    VFR   VFR Marginal   IFR   IFR Intensif   IFR Très Intensif
Visi : 
Plafond : 
>= 8 km
>= 3000ft
5 à 8 km
1000 à 3000 ft
1500m à 5 km
500 à 1000 ft
800 à 1500m
200 à 500 ft
< 800m
< 200 ft
Symboles :   Orages  Brouillard  Fortes neiges  Fortes précipitations  Vent > 20 kt
SIGMETs :   Divers  Orages  Givrage  Turbulence  Onde Orograph.  Cendres Volcan.







- Altitude de l'aérodrome : 0 ft


ETEB - Ansbach Army Heliport

DERNIER METAR :
  • 250901Z AUTO 27012KT 9999 -RA FEW020 FEW024 BKN029 04/00 A3009 RMK AO2 SLP215 $

METARs EXPIRÉS :
  • 250833Z AUTO 27014G23KT 9999 -RA FEW027 SCT060 SCT075 05/M01 A3009 RMK AO2 RAB33 SLP212 $
  • 250656Z AUTO 26010KT 9999 CLR 03/M01 A3009 RMK AO2 SLP215 T00321012 $

TAF TAF ETEB
Valide du 25 à 06h jusqu'au 26 à 12h UTC


250604Z 2506/2612 26012KT 9999 SCT030 BKN040 QNH3011INS
BECMG 2508/2509 26015G25KT 5000 -SHRASN SCT015 BKN025 620257 540004 QNH3010INS
TEMPO 2512/2516 5000 -SHRA
BECMG 2517/2518 30012G18KT 9999 NSW BKN040 620406 QNH3012INS
BECMG 2519/2520 28012G18KT 8000 -SHRASN OVC030 610307 QNH2014INS
BECMG 2523/2600 33012G18KT 9999 NSW BKN030 610307 QNH3022INS
BECMG 2602/2603 VRB06KT 6000 BR SCT005 BKN030 610307 QNH3026INS
BECMG 2608/2609 30012KT 9999 NSW BKN025 620257 QNH3035INS TX09/2514Z TNM01/2605Z
Pas de NOTAMs connus pour ce terrain.



MET'MAP, la Météo Aéronautique d'un coup d'oeil ! - Copyright ORBIFLY Décembre 2007 - Disclaimer

ORBIFLY MET'MAP TEAM :

Programmation & Développement : Alexandra Zaïnal
Conception & Développement : Baudouin d'Aumeries
Co-Programmation & Développement : Marc-Olivier Méhu
Soutien technique & logistique : Manuel Goepfert

Contact : metmap@orbifly.com




SOURCES & CREDITS :

   NOAA